FAF weather

Felker Army Air Field
Fort Eustis, Virginia, United States

Public forecast

Using degrees Fahrenheit for public forecast. Weather courtesy of forecast.io.

METAR (pilot weather report)

Retrieved 2019/07/20 07:56 UTC (42 minutes ago):

KFAF 200756Z AUTO 00000KT 10SM CLR 28/23 A2990 RMK AO2 SLP128 T02780225 $

TAF (pilot weather forecast)

Forecast is more than 12 hours old.

Retrieved 2019/07/19 18:18 UTC (14 hours ago):

TAF KFAF 191800Z 1918/2024 23009KT 9999 SCT040 SCT200 QNH2987INS TEMPO 1919/1922 VRB12G20KT 9000 -TSRA BKN040CB BECMG 1923/1924 20006KT 9999 FEW040 QNH2983INS TX35/2018Z TN26/2008Z LAST NO AMDS AFT 2003 NEXT 2210